createdAt,value
2018-09-17T00:01:32.776Z,6.57
2018-09-17T00:04:01.595Z,6.70
2018-09-17T00:06:30.428Z,7.27
2018-09-17T00:08:59.349Z,7.53
2018-09-17T00:11:28.308Z,8.60
2018-09-17T00:13:57.216Z,7.50
2018-09-17T00:16:26.140Z,7.83
2018-09-17T00:18:55.091Z,7.93
2018-09-17T00:21:23.968Z,9.07
2018-09-17T00:23:53.144Z,10.30
2018-09-17T00:26:22.119Z,9.53
2018-09-17T00:28:51.028Z,9.93
2018-09-17T00:31:20.052Z,9.50
2018-09-17T00:33:49.388Z,9.53
2018-09-17T00:36:18.264Z,9.90
2018-09-17T00:38:47.263Z,10.13
2018-09-17T00:41:16.131Z,9.67
2018-09-17T00:43:45.047Z,9.60
2018-09-17T00:46:14.054Z,9.30
2018-09-17T00:48:43.035Z,8.90
2018-09-17T00:51:12.198Z,9.63
2018-09-17T00:53:41.096Z,9.53
2018-09-17T00:56:10.004Z,8.60
2018-09-17T00:58:39.037Z,8.80
2018-09-17T01:01:08.373Z,8.93
2018-09-17T01:03:37.776Z,9.30
2018-09-17T01:06:06.612Z,8.17
2018-09-17T01:08:35.629Z,8.17
2018-09-17T01:11:04.664Z,7.80
2018-09-17T01:13:33.844Z,7.97
2018-09-17T01:16:02.723Z,8.03
2018-09-17T01:18:31.628Z,7.07
2018-09-17T01:21:00.503Z,6.87
2018-09-17T01:23:29.423Z,8.20
2018-09-17T01:25:58.365Z,8.00
2018-09-17T01:28:27.377Z,7.23
2018-09-17T01:30:56.268Z,7.93
2018-09-17T01:33:25.240Z,8.20
2018-09-17T01:35:54.092Z,7.00
2018-09-17T01:38:23.121Z,7.77
2018-09-17T01:40:52.071Z,6.60
2018-09-17T01:43:21.349Z,6.37
2018-09-17T01:45:50.988Z,6.27
2018-09-17T01:48:19.988Z,6.00
2018-09-17T01:50:49.300Z,6.30
2018-09-17T01:53:18.199Z,6.13
2018-09-17T01:55:47.171Z,7.30
2018-09-17T01:58:16.124Z,6.30
2018-09-17T02:00:45.019Z,6.80
2018-09-17T02:03:14.341Z,6.70
2018-09-17T02:05:43.719Z,6.60
2018-09-17T02:08:12.851Z,7.07
2018-09-17T02:10:42.148Z,7.20
2018-09-17T02:13:11.203Z,7.03
2018-09-17T02:15:40.296Z,7.53
2018-09-17T02:18:09.652Z,7.20
2018-09-17T02:20:39.068Z,6.83
2018-09-17T02:23:08.276Z,7.37
2018-09-17T02:25:37.407Z,6.73
2018-09-17T02:28:06.723Z,7.17
2018-09-17T02:30:35.975Z,7.00
2018-09-17T02:33:05.285Z,7.17
2018-09-17T02:35:34.112Z,7.27
2018-09-17T02:38:03.486Z,7.30
2018-09-17T02:40:32.394Z,7.60
2018-09-17T02:43:01.312Z,7.77
2018-09-17T02:45:30.244Z,7.40
2018-09-17T02:47:59.119Z,7.40
2018-09-17T02:50:28.040Z,7.23
2018-09-17T02:52:57.016Z,7.10
2018-09-17T02:55:25.916Z,7.00
2018-09-17T02:57:54.820Z,6.77
2018-09-17T03:00:23.788Z,6.97
2018-09-17T03:02:53.555Z,7.10
2018-09-17T03:05:22.771Z,6.37
2018-09-17T03:07:51.933Z,7.50
2018-09-17T03:10:20.833Z,6.50
2018-09-17T03:12:49.904Z,7.13
2018-09-17T03:15:29.995Z,6.73
2018-09-17T03:17:58.979Z,7.30
2018-09-17T03:20:28.034Z,7.33
2018-09-17T03:22:57.040Z,6.77
2018-09-17T03:25:26.044Z,6.60
2018-09-17T03:27:54.960Z,6.67
2018-09-17T03:30:23.913Z,6.73
2018-09-17T03:32:52.894Z,7.00
2018-09-17T03:35:21.815Z,6.53
2018-09-17T03:37:50.783Z,9.53
2018-09-17T03:40:19.711Z,6.63
2018-09-17T03:42:48.756Z,6.67
2018-09-17T03:45:17.760Z,6.90
2018-09-17T03:47:46.766Z,6.63
2018-09-17T03:50:15.681Z,6.83
2018-09-17T03:52:44.555Z,6.50
2018-09-17T03:55:13.532Z,6.43
2018-09-17T03:57:42.411Z,6.57
2018-09-17T04:00:11.441Z,7.03
2018-09-17T04:02:40.424Z,6.70
2018-09-17T04:05:09.336Z,6.77
2018-09-17T04:07:38.300Z,6.37
2018-09-17T04:10:07.264Z,6.60
2018-09-17T04:12:36.160Z,6.27
2018-09-17T04:15:05.012Z,6.60
2018-09-17T04:17:33.924Z,6.80
2018-09-17T04:20:02.808Z,6.67
2018-09-17T04:22:31.890Z,6.23
2018-09-17T04:25:01.202Z,7.60
2018-09-17T04:27:30.039Z,6.93
2018-09-17T04:29:58.956Z,9.23
2018-09-17T04:32:28.335Z,6.60
2018-09-17T04:34:57.299Z,7.33
2018-09-17T04:37:26.301Z,6.97
2018-09-17T04:39:55.351Z,7.03
2018-09-17T04:42:24.288Z,6.53
2018-09-17T04:44:53.189Z,7.93
2018-09-17T04:47:22.391Z,9.90
2018-09-17T04:49:51.924Z,5.87
2018-09-17T04:52:20.864Z,5.70
2018-09-17T04:54:50.053Z,6.77
2018-09-17T04:57:19.650Z,6.27
2018-09-17T04:59:48.924Z,6.40
2018-09-17T05:02:18.040Z,6.40
2018-09-17T05:04:47.314Z,6.10
2018-09-17T05:07:16.398Z,5.83
2018-09-17T05:09:45.320Z,5.93
2018-09-17T05:12:14.251Z,5.97
2018-09-17T05:14:43.096Z,5.67
2018-09-17T05:17:12.036Z,5.57
2018-09-17T05:19:41.280Z,5.87
2018-09-17T05:22:10.372Z,6.27
2018-09-17T05:24:39.541Z,6.30
2018-09-17T05:27:08.548Z,5.80
2018-09-17T05:29:37.939Z,6.23
2018-09-17T05:32:07.396Z,6.43
2018-09-17T05:34:36.384Z,5.67
2018-09-17T05:37:05.463Z,5.87
2018-09-17T05:39:34.423Z,5.80
2018-09-17T05:42:03.440Z,5.50
2018-09-17T05:44:32.411Z,5.73
2018-09-17T05:47:01.312Z,5.20
2018-09-17T05:49:30.328Z,6.63
2018-09-17T05:51:59.444Z,5.43
2018-09-17T05:54:28.362Z,5.60
2018-09-17T05:56:57.192Z,5.37
2018-09-17T05:59:26.041Z,5.13
2018-09-17T06:01:54.971Z,5.73
2018-09-17T06:04:23.888Z,5.17
2018-09-17T06:06:52.838Z,6.20
2018-09-17T06:09:21.817Z,6.00
2018-09-17T06:11:50.844Z,5.40
2018-09-17T06:14:19.811Z,5.10
2018-09-17T06:16:48.757Z,5.20
2018-09-17T06:19:17.723Z,5.00
2018-09-17T06:21:46.676Z,5.30
2018-09-17T06:24:15.701Z,5.10
2018-09-17T06:26:44.692Z,4.57
2018-09-17T06:29:13.584Z,4.97
2018-09-17T06:31:42.532Z,4.87
2018-09-17T06:34:11.561Z,4.60
2018-09-17T06:36:40.649Z,5.30
2018-09-17T06:39:10.195Z,5.20
2018-09-17T06:41:39.147Z,5.00
2018-09-17T06:44:08.064Z,4.90
2018-09-17T06:46:37.081Z,4.97
2018-09-17T06:49:06.056Z,5.30
2018-09-17T06:51:35.228Z,4.73
2018-09-17T06:54:04.232Z,4.33
2018-09-17T06:56:33.965Z,4.70
2018-09-17T06:59:02.967Z,4.50
2018-09-17T07:01:31.823Z,4.53
2018-09-17T07:04:00.811Z,4.97
2018-09-17T07:06:30.016Z,4.50
2018-09-17T07:08:59.241Z,4.40
2018-09-17T07:11:28.432Z,4.50
2018-09-17T07:13:57.312Z,4.27
2018-09-17T07:16:26.259Z,4.43
2018-09-17T07:18:55.484Z,4.17
2018-09-17T07:21:24.818Z,4.17
2018-09-17T07:23:53.824Z,4.13
2018-09-17T07:26:22.771Z,4.00
2018-09-17T07:28:51.702Z,4.50
2018-09-17T07:31:20.649Z,3.60
2018-09-17T07:33:50.385Z,4.10
2018-09-17T07:36:19.533Z,4.10
2018-09-17T07:38:48.373Z,3.83
2018-09-17T07:41:17.268Z,4.20
2018-09-17T07:43:46.278Z,4.13
2018-09-17T07:46:15.252Z,3.80
2018-09-17T07:48:44.267Z,4.43
2018-09-17T07:51:13.175Z,5.40
2018-09-17T07:53:42.336Z,4.47
2018-09-17T07:56:11.687Z,4.40
2018-09-17T07:58:40.711Z,4.33
2018-09-17T08:01:09.676Z,5.10
2018-09-17T08:03:38.563Z,5.00
2018-09-17T08:06:07.827Z,4.53
2018-09-17T08:08:36.882Z,4.83
2018-09-17T08:11:05.864Z,4.23
2018-09-17T08:13:35.105Z,4.07
2018-09-17T08:16:04.552Z,4.73
2018-09-17T08:18:33.392Z,4.30
2018-09-17T08:21:02.373Z,5.00
2018-09-17T08:23:31.872Z,4.17
2018-09-17T08:26:01.178Z,4.40
2018-09-17T08:28:30.067Z,3.87
2018-09-17T08:30:59.055Z,4.83
2018-09-17T08:33:27.960Z,3.80
2018-09-17T08:35:56.884Z,4.67
2018-09-17T08:38:26.036Z,4.13
2018-09-17T08:40:55.396Z,4.53
2018-09-17T08:43:24.360Z,3.87
2018-09-17T08:45:53.241Z,3.60
2018-09-17T08:48:22.216Z,4.30
2018-09-17T08:50:51.189Z,4.27
2018-09-17T08:53:20.028Z,4.03
2018-09-17T08:55:54.317Z,4.73
2018-09-17T08:58:24.834Z,3.77
2018-09-17T09:01:04.009Z,4.20
2018-09-17T09:03:38.772Z,3.60
2018-09-17T09:06:12.721Z,4.23
2018-09-17T09:08:41.694Z,3.93
2018-09-17T09:11:20.617Z,5.90
2018-09-17T09:13:54.627Z,3.60
2018-09-17T09:16:24.329Z,3.50
2018-09-17T09:18:53.317Z,3.70
2018-09-17T09:21:22.266Z,3.60
2018-09-17T09:23:51.456Z,3.83
2018-09-17T09:26:20.365Z,3.67
2018-09-17T09:28:49.248Z,3.70
2018-09-17T09:31:18.156Z,3.60
2018-09-17T09:33:47.125Z,3.93
2018-09-17T09:36:16.180Z,4.00
2018-09-17T09:38:45.110Z,3.87
2018-09-17T09:41:14.060Z,4.97
2018-09-17T09:43:42.887Z,3.63
2018-09-17T09:46:11.780Z,4.03
2018-09-17T09:48:40.785Z,3.70
2018-09-17T09:51:09.768Z,3.37
2018-09-17T09:53:38.669Z,4.00
2018-09-17T09:56:07.727Z,4.37
2018-09-17T09:58:36.574Z,3.70
2018-09-17T10:01:10.858Z,3.57
2018-09-17T10:03:42.823Z,3.83
2018-09-17T10:06:12.704Z,3.40
2018-09-17T10:08:46.784Z,3.30
2018-09-17T10:11:20.792Z,3.30
2018-09-17T10:13:54.632Z,3.27
2018-09-17T10:16:23.636Z,2.70
2018-09-17T10:18:57.544Z,3.80
2018-09-17T10:21:26.464Z,3.80
2018-09-17T10:23:55.716Z,3.37
2018-09-17T10:26:24.601Z,3.00
2018-09-17T10:28:53.472Z,3.17
2018-09-17T10:31:22.437Z,3.20
2018-09-17T10:33:51.341Z,3.10
2018-09-17T10:36:20.318Z,2.80
2018-09-17T10:38:49.727Z,3.50
2018-09-17T10:41:18.579Z,3.50
2018-09-17T10:43:47.745Z,4.07
2018-09-17T10:46:17.066Z,3.93
2018-09-17T10:48:46.500Z,3.63
2018-09-17T10:51:15.452Z,3.10
2018-09-17T10:53:44.357Z,3.23
2018-09-17T10:56:13.264Z,3.10
2018-09-17T10:58:42.481Z,2.80
2018-09-17T11:01:11.340Z,2.90
2018-09-17T11:03:40.345Z,2.90
2018-09-17T11:06:09.372Z,3.40
2018-09-17T11:08:38.328Z,2.70
2018-09-17T11:11:07.652Z,2.77
2018-09-17T11:13:36.688Z,3.57
2018-09-17T11:16:05.616Z,3.10
2018-09-17T11:18:34.503Z,3.43
2018-09-17T11:21:03.405Z,3.00
2018-09-17T11:23:32.257Z,3.70
2018-09-17T11:26:01.480Z,2.40
2018-09-17T11:28:30.780Z,2.80
2018-09-17T11:30:59.648Z,2.80
2018-09-17T11:33:28.873Z,3.27
2018-09-17T11:35:57.767Z,2.63
2018-09-17T11:38:26.629Z,2.83
2018-09-17T11:40:55.465Z,2.37
2018-09-17T11:43:24.319Z,4.13
2018-09-17T11:45:53.240Z,3.03
2018-09-17T11:48:22.227Z,3.03
2018-09-17T11:50:51.590Z,2.70
2018-09-17T11:53:20.868Z,3.70
2018-09-17T11:55:50.042Z,3.17
2018-09-17T11:58:19.001Z,3.10
2018-09-17T12:00:54.180Z,2.70
2018-09-17T12:03:28.236Z,2.50
2018-09-17T12:06:01.390Z,2.80
2018-09-17T12:08:30.328Z,3.50
2018-09-17T12:10:59.253Z,3.27
2018-09-17T12:13:28.143Z,3.70
2018-09-17T12:15:57.053Z,2.80
2018-09-17T12:18:25.955Z,2.63
2018-09-17T12:20:54.888Z,2.93
2018-09-17T12:23:23.851Z,2.93
2018-09-17T12:25:52.690Z,2.50
2018-09-17T12:28:21.631Z,2.23
2018-09-17T12:30:50.541Z,2.50
2018-09-17T12:33:19.456Z,2.67
2018-09-17T12:35:48.407Z,2.37
2018-09-17T12:38:17.484Z,2.50
2018-09-17T12:40:46.496Z,4.20
2018-09-17T12:43:15.472Z,3.03
2018-09-17T12:45:44.394Z,2.27
2018-09-17T12:48:13.394Z,2.50
2018-09-17T12:50:42.299Z,2.40
2018-09-17T12:53:11.235Z,2.80
2018-09-17T12:55:40.092Z,2.60
2018-09-17T12:58:09.232Z,2.83
2018-09-17T13:00:38.142Z,2.60
2018-09-17T13:03:07.024Z,2.43
2018-09-17T13:05:35.940Z,2.20
2018-09-17T13:08:04.812Z,2.50
2018-09-17T13:10:34.121Z,2.63
2018-09-17T13:13:03.447Z,3.10
2018-09-17T13:15:32.332Z,2.47
2018-09-17T13:18:01.204Z,2.50
2018-09-17T13:20:30.048Z,2.50
2018-09-17T13:22:59.079Z,2.20
2018-09-17T13:25:28.011Z,2.43
2018-09-17T13:27:56.852Z,2.63
2018-09-17T13:30:25.853Z,2.20
2018-09-17T13:32:54.825Z,2.10
2018-09-17T13:35:23.860Z,2.70
2018-09-17T13:37:52.775Z,2.90
2018-09-17T13:40:21.744Z,2.30
2018-09-17T13:42:50.733Z,2.47
2018-09-17T13:45:19.733Z,2.30
2018-09-17T13:47:48.597Z,2.37
2018-09-17T13:50:17.786Z,2.47
2018-09-17T13:52:47.240Z,3.33
2018-09-17T13:55:16.670Z,2.50
2018-09-17T13:57:45.908Z,2.50
2018-09-17T14:00:14.992Z,2.60
2018-09-17T14:02:43.833Z,2.17
2018-09-17T14:05:12.804Z,2.50
2018-09-17T14:07:41.717Z,2.93
2018-09-17T14:10:10.882Z,3.10
2018-09-17T14:12:40.117Z,2.07
2018-09-17T14:15:09.536Z,2.73
2018-09-17T14:17:38.480Z,2.20
2018-09-17T14:20:07.783Z,2.23
2018-09-17T14:22:37.282Z,2.27
2018-09-17T14:25:06.746Z,2.30
2018-09-17T14:27:35.908Z,2.40
2018-09-17T14:30:04.956Z,2.90
2018-09-17T14:32:39.102Z,2.80
2018-09-17T14:35:08.054Z,2.90
2018-09-17T14:37:37.001Z,2.60
2018-09-17T14:40:05.928Z,2.63
2018-09-17T14:42:34.936Z,2.30
2018-09-17T14:45:03.946Z,2.20
2018-09-17T14:47:33.303Z,2.53
2018-09-17T14:50:02.219Z,2.70
2018-09-17T14:52:31.060Z,2.30
2018-09-17T14:55:00.437Z,2.37
2018-09-17T14:57:29.424Z,2.40
2018-09-17T14:59:58.359Z,2.37
2018-09-17T15:02:27.351Z,2.03
2018-09-17T15:04:56.321Z,2.90
2018-09-17T15:07:25.360Z,4.33
2018-09-17T15:09:54.784Z,2.40
2018-09-17T15:12:24.102Z,3.07
2018-09-17T15:14:53.347Z,2.03
2018-09-17T15:17:23.112Z,2.43
2018-09-17T15:19:52.155Z,2.70
2018-09-17T15:22:21.148Z,4.23
2018-09-17T15:24:50.769Z,2.60
2018-09-17T15:27:19.700Z,2.43
2018-09-17T15:29:48.639Z,2.70
2018-09-17T15:32:17.776Z,2.50
2018-09-17T15:34:46.712Z,2.40
2018-09-17T15:37:16.832Z,2.73
2018-09-17T15:39:45.775Z,3.07
2018-09-17T15:42:15.024Z,3.07
2018-09-17T15:44:43.978Z,2.30
2018-09-17T15:47:13.387Z,2.60
2018-09-17T15:49:42.321Z,2.60
2018-09-17T15:52:11.258Z,2.70
2018-09-17T15:54:40.261Z,2.20
2018-09-17T15:57:09.104Z,2.27
2018-09-17T15:59:38.042Z,2.60
2018-09-17T16:02:07.216Z,2.90
2018-09-17T16:04:36.216Z,2.60
2018-09-17T16:07:05.195Z,2.40
2018-09-17T16:09:34.112Z,3.00
2018-09-17T16:12:03.269Z,2.40
2018-09-17T16:14:32.713Z,2.53
2018-09-17T16:17:01.693Z,2.50
2018-09-17T16:19:30.693Z,3.17
2018-09-17T16:21:59.964Z,2.70
2018-09-17T16:24:29.239Z,2.93
2018-09-17T16:26:58.050Z,2.53
2018-09-17T16:29:27.149Z,3.00
2018-09-17T16:31:55.990Z,3.20
2018-09-17T16:34:24.885Z,2.77
2018-09-17T16:36:53.898Z,2.70
2018-09-17T16:39:22.880Z,2.80
2018-09-17T16:41:51.885Z,3.30
2018-09-17T16:44:20.829Z,2.53
2018-09-17T16:46:50.982Z,2.70
2018-09-17T16:49:19.923Z,3.20
2018-09-17T16:51:48.916Z,2.90
2018-09-17T16:54:17.923Z,3.20
2018-09-17T16:56:46.860Z,3.13
2018-09-17T16:59:15.763Z,2.53
2018-09-17T17:01:44.744Z,2.67
2018-09-17T17:04:14.533Z,2.63
2018-09-17T17:06:43.797Z,3.03
2018-09-17T17:09:12.756Z,3.53
2018-09-17T17:11:41.641Z,3.43
2018-09-17T17:14:10.642Z,3.40
2018-09-17T17:16:39.767Z,3.27
2018-09-17T17:19:08.646Z,2.97
2018-09-17T17:21:37.605Z,3.07
2018-09-17T17:24:06.444Z,3.80
2018-09-17T17:26:35.420Z,4.00
2018-09-17T17:29:04.379Z,2.90
2018-09-17T17:31:33.284Z,3.07
2018-09-17T17:34:02.248Z,2.63
2018-09-17T17:36:31.573Z,3.43
2018-09-17T17:39:00.760Z,3.93
2018-09-17T17:41:29.792Z,3.30
2018-09-17T17:43:58.776Z,2.40
2018-09-17T17:46:27.784Z,2.73
2018-09-17T17:48:56.840Z,2.87
2018-09-17T17:51:25.707Z,3.37
2018-09-17T17:53:54.670Z,2.47
2018-09-17T17:56:23.862Z,2.83
2018-09-17T17:58:52.768Z,2.53
2018-09-17T18:01:21.831Z,2.50
2018-09-17T18:03:50.832Z,3.23
2018-09-17T18:06:19.764Z,3.10
2018-09-17T18:08:49.072Z,2.90
2018-09-17T18:11:18.047Z,2.67
2018-09-17T18:13:46.970Z,3.53
2018-09-17T18:16:15.843Z,3.20
2018-09-17T18:18:44.781Z,3.07
2018-09-17T18:21:13.802Z,3.53
2018-09-17T18:23:43.623Z,2.90
2018-09-17T18:26:12.706Z,2.63
2018-09-17T18:28:41.720Z,2.90
2018-09-17T18:31:10.705Z,2.77
2018-09-17T18:33:39.567Z,2.70
2018-09-17T18:36:08.756Z,2.40
2018-09-17T18:38:37.753Z,2.23
2018-09-17T18:41:06.603Z,2.70
2018-09-17T18:43:35.607Z,2.93
2018-09-17T18:46:04.576Z,2.77
2018-09-17T18:48:33.607Z,2.80
2018-09-17T18:51:02.698Z,2.43
2018-09-17T18:53:31.704Z,3.30
2018-09-17T18:56:00.608Z,3.90
2018-09-17T18:58:29.518Z,3.30
2018-09-17T19:00:58.399Z,2.60
2018-09-17T19:03:27.362Z,2.70
2018-09-17T19:05:56.240Z,2.97
2018-09-17T19:08:25.338Z,5.07
2018-09-17T19:10:54.325Z,2.80
2018-09-17T19:13:23.209Z,2.50
2018-09-17T19:15:54.892Z,3.37
2018-09-17T19:18:23.807Z,2.87
2018-09-17T19:20:53.546Z,2.63
2018-09-17T19:23:27.075Z,2.60
2018-09-17T19:25:56.515Z,2.80
2018-09-17T19:28:30.428Z,4.07
2018-09-17T19:30:59.460Z,2.80
2018-09-17T19:33:28.328Z,2.90
2018-09-17T19:35:57.397Z,2.57
2018-09-17T19:38:31.251Z,2.83
2018-09-17T19:41:00.206Z,2.50
2018-09-17T19:43:29.179Z,2.20
2018-09-17T19:46:03.142Z,2.20
2018-09-17T19:48:32.506Z,4.17
2018-09-17T19:51:06.710Z,2.73
2018-09-17T19:53:35.683Z,2.63
2018-09-17T19:56:04.876Z,2.40
2018-09-17T19:58:38.988Z,2.37
2018-09-17T20:01:07.898Z,5.97
2018-09-17T20:03:36.800Z,3.57
2018-09-17T20:06:10.711Z,4.37
2018-09-17T20:08:46.104Z,2.50
2018-09-17T20:11:15.158Z,2.37
2018-09-17T20:13:44.049Z,2.67
2018-09-17T20:16:13.328Z,2.67
2018-09-17T20:18:42.525Z,4.33
2018-09-17T20:21:12.335Z,3.43
2018-09-17T20:23:41.641Z,2.80
2018-09-17T20:26:11.064Z,3.03
2018-09-17T20:28:40.029Z,2.40
2018-09-17T20:31:09.004Z,2.50
2018-09-17T20:33:37.888Z,2.80
2018-09-17T20:36:06.873Z,3.30
2018-09-17T20:38:36.006Z,2.00
2018-09-17T20:41:06.068Z,2.47
2018-09-17T20:43:35.040Z,2.70
2018-09-17T20:46:04.360Z,2.70
2018-09-17T20:48:33.761Z,2.60
2018-09-17T20:51:02.669Z,4.60
2018-09-17T20:53:31.556Z,2.87
2018-09-17T20:56:00.501Z,2.57
2018-09-17T20:58:29.724Z,2.33
2018-09-17T21:00:58.972Z,2.63
2018-09-17T21:03:27.835Z,2.73
2018-09-17T21:05:57.024Z,2.70
2018-09-17T21:08:26.049Z,3.50
2018-09-17T21:10:55.221Z,2.97
2018-09-17T21:13:24.192Z,3.20
2018-09-17T21:15:53.055Z,3.13
2018-09-17T21:18:22.113Z,3.00
2018-09-17T21:20:51.344Z,3.23
2018-09-17T21:23:20.793Z,2.60
2018-09-17T21:25:49.968Z,2.80
2018-09-17T21:28:18.928Z,2.83
2018-09-17T21:30:48.231Z,3.10
2018-09-17T21:33:17.221Z,3.40
2018-09-17T21:35:46.107Z,3.20
2018-09-17T21:38:15.256Z,2.80
2018-09-17T21:40:44.386Z,2.90
2018-09-17T21:43:13.301Z,2.60
2018-09-17T21:45:42.236Z,2.53
2018-09-17T21:48:11.320Z,2.70
2018-09-17T21:50:40.587Z,2.97
2018-09-17T21:53:09.755Z,2.33
2018-09-17T21:55:39.037Z,2.87
2018-09-17T21:58:08.340Z,3.10
2018-09-17T22:00:42.435Z,3.23
2018-09-17T22:03:11.412Z,2.80
2018-09-17T22:05:40.384Z,3.67
2018-09-17T22:08:09.384Z,2.67
2018-09-17T22:10:38.436Z,2.73
2018-09-17T22:13:07.880Z,2.53
2018-09-17T22:15:36.839Z,2.90
2018-09-17T22:18:05.783Z,2.90
2018-09-17T22:20:34.620Z,2.50
2018-09-17T22:23:03.846Z,3.20
2018-09-17T22:25:32.711Z,3.20
2018-09-17T22:28:01.668Z,2.70
2018-09-17T22:30:30.550Z,2.77
2018-09-17T22:32:59.805Z,2.80
2018-09-17T22:35:28.695Z,2.67
2018-09-17T22:37:57.541Z,2.70
2018-09-17T22:40:26.416Z,3.10
2018-09-17T22:42:55.446Z,2.90
2018-09-17T22:45:24.359Z,2.73
2018-09-17T22:47:53.620Z,2.90
2018-09-17T22:50:22.536Z,2.70
2018-09-17T22:52:51.644Z,3.27
2018-09-17T22:55:20.673Z,2.70
2018-09-17T22:57:49.668Z,2.90
2018-09-17T23:00:18.955Z,2.70
2018-09-17T23:02:47.913Z,2.70
2018-09-17T23:05:16.972Z,3.13
2018-09-17T23:07:45.947Z,3.03
2018-09-17T23:10:14.910Z,3.00
2018-09-17T23:12:44.394Z,2.50
2018-09-17T23:15:13.380Z,2.83
2018-09-17T23:17:42.268Z,2.63
2018-09-17T23:20:11.625Z,2.43
2018-09-17T23:22:41.069Z,2.67
2018-09-17T23:25:10.308Z,2.50
2018-09-17T23:27:39.556Z,2.60
2018-09-17T23:30:08.608Z,2.80
2018-09-17T23:32:37.635Z,3.07
2018-09-17T23:35:06.679Z,2.70
2018-09-17T23:37:35.807Z,2.60
2018-09-17T23:40:04.968Z,2.80
2018-09-17T23:42:34.398Z,2.60
2018-09-17T23:45:03.653Z,2.60
2018-09-17T23:47:32.709Z,2.50
2018-09-17T23:50:01.700Z,3.23
2018-09-17T23:52:30.567Z,2.70
2018-09-17T23:54:59.568Z,3.33
2018-09-17T23:57:28.487Z,3.00
2018-09-17T23:59:57.786Z,3.20
